Terminal Aerodrome Forecast
Issued by NWS Hastings, NE

Home | Current Version | Previous Version | Text Only | Print | Product List | Glossary On
Versions: 1 2 3 4 5 6 7 8 9 10 11 12 13 14 15 16 17 18 19 20 21 22 23 24
000
FTUS43 KGID 262320
TAFGRI
TAF
KGRI 262320Z 2700/2724 06006KT P6SM FEW250
     FM270600 05006KT P6SM VCTS SCT050CB OVC100
     FM271400 05007KT P6SM -SHRA VCTS OVC030CB
     FM271700 01009KT P6SM OVC015
     FM272000 36010KT P6SM BKN020=

USA.gov is the U.S. government's official web portal to all federal, state and local government web resources and services.